sensor_id;sensor_type;location;lat;lon;timestamp;P1;durP1;ratioP1;P2;durP2;ratioP2
6027;SDS011;3042;43.194;27.646;2022-09-29T00:00:26;12.83;;;7.80;;
6027;SDS011;3042;43.194;27.646;2022-09-29T00:02:53;15.83;;;7.63;;
6027;SDS011;3042;43.194;27.646;2022-09-29T00:05:20;18.65;;;8.52;;
6027;SDS011;3042;43.194;27.646;2022-09-29T00:07:48;17.50;;;8.90;;
6027;SDS011;3042;43.194;27.646;2022-09-29T00:10:16;14.23;;;6.80;;
6027;SDS011;3042;43.194;27.646;2022-09-29T00:12:44;18.03;;;8.43;;
6027;SDS011;3042;43.194;27.646;2022-09-29T00:15:11;15.40;;;8.20;;
6027;SDS011;3042;43.194;27.646;2022-09-29T00:17:39;17.17;;;10.10;;
6027;SDS011;3042;43.194;27.646;2022-09-29T00:20:06;20.03;;;14.73;;
6027;SDS011;3042;43.194;27.646;2022-09-29T00:22:34;22.03;;;8.73;;
6027;SDS011;3042;43.194;27.646;2022-09-29T00:25:01;26.73;;;10.77;;
6027;SDS011;3042;43.194;27.646;2022-09-29T00:27:30;8.50;;;7.70;;
6027;SDS011;3042;43.194;27.646;2022-09-29T00:29:58;9.53;;;8.57;;
6027;SDS011;3042;43.194;27.646;2022-09-29T00:32:25;9.57;;;8.60;;
6027;SDS011;3042;43.194;27.646;2022-09-29T00:34:52;11.00;;;8.77;;
6027;SDS011;3042;43.194;27.646;2022-09-29T00:37:19;9.27;;;8.40;;
6027;SDS011;3042;43.194;27.646;2022-09-29T00:39:47;14.10;;;8.93;;
6027;SDS011;3042;43.194;27.646;2022-09-29T00:42:16;10.23;;;9.43;;
6027;SDS011;3042;43.194;27.646;2022-09-29T00:44:56;9.53;;;8.63;;
6027;SDS011;3042;43.194;27.646;2022-09-29T00:47:29;9.90;;;8.90;;
6027;SDS011;3042;43.194;27.646;2022-09-29T00:49:59;13.87;;;8.33;;
6027;SDS011;3042;43.194;27.646;2022-09-29T00:52:29;19.90;;;11.67;;
6027;SDS011;3042;43.194;27.646;2022-09-29T00:54:59;9.53;;;8.17;;
6027;SDS011;3042;43.194;27.646;2022-09-29T00:57:31;32.10;;;10.90;;
6027;SDS011;3042;43.194;27.646;2022-09-29T01:00:04;42.10;;;10.77;;
6027;SDS011;3042;43.194;27.646;2022-09-29T01:02:34;27.67;;;9.57;;
6027;SDS011;3042;43.194;27.646;2022-09-29T01:05:05;20.87;;;10.07;;
6027;SDS011;3042;43.194;27.646;2022-09-29T01:07:36;20.87;;;9.17;;
6027;SDS011;3042;43.194;27.646;2022-09-29T01:10:05;29.30;;;9.07;;
6027;SDS011;3042;43.194;27.646;2022-09-29T01:12:33;14.13;;;10.10;;
6027;SDS011;3042;43.194;27.646;2022-09-29T01:15:03;23.40;;;9.30;;
6027;SDS011;3042;43.194;27.646;2022-09-29T01:17:30;17.13;;;10.17;;
6027;SDS011;3042;43.194;27.646;2022-09-29T01:20:00;20.07;;;9.67;;
6027;SDS011;3042;43.194;27.646;2022-09-29T01:26:02;13.20;;;9.30;;
6027;SDS011;3042;43.194;27.646;2022-09-29T01:32:01;43.90;;;15.63;;
6027;SDS011;3042;43.194;27.646;2022-09-29T01:34:36;31.40;;;14.90;;
6027;SDS011;3042;43.194;27.646;2022-09-29T01:37:13;31.13;;;14.50;;
6027;SDS011;3042;43.194;27.646;2022-09-29T01:39:47;34.80;;;13.27;;
6027;SDS011;3042;43.194;27.646;2022-09-29T01:42:23;20.00;;;13.13;;
6027;SDS011;3042;43.194;27.646;2022-09-29T01:44:56;28.10;;;14.70;;
6027;SDS011;3042;43.194;27.646;2022-09-29T01:47:31;51.23;;;15.73;;
6027;SDS011;3042;43.194;27.646;2022-09-29T01:50:04;32.73;;;15.93;;
6027;SDS011;3042;43.194;27.646;2022-09-29T01:52:37;39.73;;;16.63;;
6027;SDS011;3042;43.194;27.646;2022-09-29T01:55:08;48.70;;;15.80;;
6027;SDS011;3042;43.194;27.646;2022-09-29T01:57:38;42.97;;;17.80;;
6027;SDS011;3042;43.194;27.646;2022-09-29T02:00:12;49.23;;;17.77;;
6027;SDS011;3042;43.194;27.646;2022-09-29T02:02:45;37.97;;;19.37;;
6027;SDS011;3042;43.194;27.646;2022-09-29T02:05:16;30.03;;;18.40;;
6027;SDS011;3042;43.194;27.646;2022-09-29T02:07:47;48.30;;;19.90;;
6027;SDS011;3042;43.194;27.646;2022-09-29T02:10:16;52.43;;;20.10;;
6027;SDS011;3042;43.194;27.646;2022-09-29T02:12:47;52.57;;;20.97;;
6027;SDS011;3042;43.194;27.646;2022-09-29T02:15:17;36.83;;;14.67;;
6027;SDS011;3042;43.194;27.646;2022-09-29T02:17:52;37.13;;;15.90;;
6027;SDS011;3042;43.194;27.646;2022-09-29T02:20:23;58.10;;;18.70;;
6027;SDS011;3042;43.194;27.646;2022-09-29T02:22:50;49.60;;;18.70;;
6027;SDS011;3042;43.194;27.646;2022-09-29T02:25:18;39.97;;;17.57;;
6027;SDS011;3042;43.194;27.646;2022-09-29T02:27:46;47.40;;;18.20;;
6027;SDS011;3042;43.194;27.646;2022-09-29T02:30:14;46.33;;;19.50;;
6027;SDS011;3042;43.194;27.646;2022-09-29T02:32:42;65.30;;;19.47;;
6027;SDS011;3042;43.194;27.646;2022-09-29T02:35:11;62.33;;;18.57;;
6027;SDS011;3042;43.194;27.646;2022-09-29T02:37:42;49.93;;;18.50;;
6027;SDS011;3042;43.194;27.646;2022-09-29T02:40:25;55.30;;;20.40;;
6027;SDS011;3042;43.194;27.646;2022-09-29T02:43:05;55.03;;;19.80;;
6027;SDS011;3042;43.194;27.646;2022-09-29T02:45:43;49.63;;;21.77;;
6027;SDS011;3042;43.194;27.646;2022-09-29T02:51:23;53.87;;;21.13;;
6027;SDS011;3042;43.194;27.646;2022-09-29T02:53:58;39.27;;;16.30;;
6027;SDS011;3042;43.194;27.646;2022-09-29T02:56:36;55.10;;;16.10;;
6027;SDS011;3042;43.194;27.646;2022-09-29T02:59:10;66.97;;;19.17;;
6027;SDS011;3042;43.194;27.646;2022-09-29T03:01:46;54.10;;;17.23;;
6027;SDS011;3042;43.194;27.646;2022-09-29T03:04:14;49.00;;;16.07;;
6027;SDS011;3042;43.194;27.646;2022-09-29T03:06:43;36.33;;;16.77;;
6027;SDS011;3042;43.194;27.646;2022-09-29T03:09:10;44.83;;;19.50;;
6027;SDS011;3042;43.194;27.646;2022-09-29T03:11:38;42.63;;;19.08;;
6027;SDS011;3042;43.194;27.646;2022-09-29T03:14:05;48.27;;;20.40;;
6027;SDS011;3042;43.194;27.646;2022-09-29T03:16:33;49.03;;;20.90;;
6027;SDS011;3042;43.194;27.646;2022-09-29T03:19:01;41.87;;;19.20;;
6027;SDS011;3042;43.194;27.646;2022-09-29T03:21:29;46.90;;;21.37;;
6027;SDS011;3042;43.194;27.646;2022-09-29T03:23:58;66.50;;;21.10;;
6027;SDS011;3042;43.194;27.646;2022-09-29T03:26:26;52.70;;;20.90;;
6027;SDS011;3042;43.194;27.646;2022-09-29T03:28:54;85.67;;;21.67;;
6027;SDS011;3042;43.194;27.646;2022-09-29T03:31:21;37.13;;;20.47;;
6027;SDS011;3042;43.194;27.646;2022-09-29T03:33:48;40.87;;;21.87;;
6027;SDS011;3042;43.194;27.646;2022-09-29T03:36:16;43.80;;;21.87;;
6027;SDS011;3042;43.194;27.646;2022-09-29T03:38:43;35.80;;;20.17;;
6027;SDS011;3042;43.194;27.646;2022-09-29T03:41:12;57.07;;;20.80;;
6027;SDS011;3042;43.194;27.646;2022-09-29T03:43:40;53.57;;;20.83;;
6027;SDS011;3042;43.194;27.646;2022-09-29T03:46:07;45.40;;;20.60;;
6027;SDS011;3042;43.194;27.646;2022-09-29T03:48:34;43.80;;;19.10;;
6027;SDS011;3042;43.194;27.646;2022-09-29T03:51:01;47.03;;;20.73;;
6027;SDS011;3042;43.194;27.646;2022-09-29T03:53:30;45.80;;;21.60;;
6027;SDS011;3042;43.194;27.646;2022-09-29T03:55:59;53.03;;;20.23;;
6027;SDS011;3042;43.194;27.646;2022-09-29T03:58:28;28.23;;;19.70;;
6027;SDS011;3042;43.194;27.646;2022-09-29T04:00:56;49.00;;;20.90;;
6027;SDS011;3042;43.194;27.646;2022-09-29T04:03:23;44.63;;;19.67;;
6027;SDS011;3042;43.194;27.646;2022-09-29T04:05:50;33.37;;;19.10;;
6027;SDS011;3042;43.194;27.646;2022-09-29T04:08:18;29.53;;;18.70;;
6027;SDS011;3042;43.194;27.646;2022-09-29T04:10:45;31.93;;;19.30;;
6027;SDS011;3042;43.194;27.646;2022-09-29T04:13:13;39.23;;;19.10;;
6027;SDS011;3042;43.194;27.646;2022-09-29T04:15:44;32.10;;;20.10;;
6027;SDS011;3042;43.194;27.646;2022-09-29T04:18:11;29.30;;;18.70;;
6027;SDS011;3042;43.194;27.646;2022-09-29T04:20:38;36.67;;;21.60;;
6027;SDS011;3042;43.194;27.646;2022-09-29T04:23:06;34.17;;;18.60;;
6027;SDS011;3042;43.194;27.646;2022-09-29T04:25:33;33.63;;;18.40;;
6027;SDS011;3042;43.194;27.646;2022-09-29T04:28:00;58.73;;;20.23;;
6027;SDS011;3042;43.194;27.646;2022-09-29T04:30:27;31.43;;;18.53;;
6027;SDS011;3042;43.194;27.646;2022-09-29T04:32:57;36.73;;;19.03;;
6027;SDS011;3042;43.194;27.646;2022-09-29T04:35:24;33.40;;;19.57;;
6027;SDS011;3042;43.194;27.646;2022-09-29T04:37:53;25.10;;;17.57;;
6027;SDS011;3042;43.194;27.646;2022-09-29T04:40:23;32.40;;;19.53;;
6027;SDS011;3042;43.194;27.646;2022-09-29T04:42:51;35.73;;;20.20;;
6027;SDS011;3042;43.194;27.646;2022-09-29T04:45:18;37.53;;;21.33;;
6027;SDS011;3042;43.194;27.646;2022-09-29T04:47:45;30.77;;;19.37;;
6027;SDS011;3042;43.194;27.646;2022-09-29T04:50:14;37.80;;;20.47;;
6027;SDS011;3042;43.194;27.646;2022-09-29T04:52:41;37.43;;;21.50;;
6027;SDS011;3042;43.194;27.646;2022-09-29T04:55:09;46.53;;;19.10;;
6027;SDS011;3042;43.194;27.646;2022-09-29T04:57:37;40.63;;;20.23;;
6027;SDS011;3042;43.194;27.646;2022-09-29T05:00:05;41.13;;;22.13;;
6027;SDS011;3042;43.194;27.646;2022-09-29T05:02:33;38.42;;;22.33;;
6027;SDS011;3042;43.194;27.646;2022-09-29T05:05:01;44.83;;;19.73;;
6027;SDS011;3042;43.194;27.646;2022-09-29T05:07:32;37.17;;;24.90;;
6027;SDS011;3042;43.194;27.646;2022-09-29T05:10:00;36.17;;;20.47;;
6027;SDS011;3042;43.194;27.646;2022-09-29T05:12:27;30.13;;;18.27;;
6027;SDS011;3042;43.194;27.646;2022-09-29T05:14:55;33.93;;;19.17;;
6027;SDS011;3042;43.194;27.646;2022-09-29T05:17:22;42.83;;;19.10;;
6027;SDS011;3042;43.194;27.646;2022-09-29T05:19:49;36.43;;;21.67;;
6027;SDS011;3042;43.194;27.646;2022-09-29T05:22:17;70.77;;;34.40;;
6027;SDS011;3042;43.194;27.646;2022-09-29T05:24:50;27.00;;;18.83;;
6027;SDS011;3042;43.194;27.646;2022-09-29T05:27:17;34.20;;;22.57;;
6027;SDS011;3042;43.194;27.646;2022-09-29T05:29:46;39.90;;;23.50;;
6027;SDS011;3042;43.194;27.646;2022-09-29T05:32:13;41.65;;;26.15;;
6027;SDS011;3042;43.194;27.646;2022-09-29T05:34:40;74.60;;;28.87;;
6027;SDS011;3042;43.194;27.646;2022-09-29T05:37:08;62.97;;;24.87;;
6027;SDS011;3042;43.194;27.646;2022-09-29T05:39:35;45.90;;;27.43;;
6027;SDS011;3042;43.194;27.646;2022-09-29T05:42:04;49.80;;;30.90;;
6027;SDS011;3042;43.194;27.646;2022-09-29T05:44:34;85.57;;;38.33;;
6027;SDS011;3042;43.194;27.646;2022-09-29T05:47:02;81.67;;;41.00;;
6027;SDS011;3042;43.194;27.646;2022-09-29T05:49:29;59.87;;;38.43;;
6027;SDS011;3042;43.194;27.646;2022-09-29T05:51:57;87.20;;;39.67;;
6027;SDS011;3042;43.194;27.646;2022-09-29T05:54:25;71.20;;;36.53;;
6027;SDS011;3042;43.194;27.646;2022-09-29T05:56:52;61.13;;;34.17;;
6027;SDS011;3042;43.194;27.646;2022-09-29T05:59:21;81.07;;;36.63;;
6027;SDS011;3042;43.194;27.646;2022-09-29T06:01:49;66.93;;;43.10;;
6027;SDS011;3042;43.194;27.646;2022-09-29T06:04:16;84.20;;;45.60;;
6027;SDS011;3042;43.194;27.646;2022-09-29T06:06:43;77.40;;;46.20;;
6027;SDS011;3042;43.194;27.646;2022-09-29T06:09:12;235.73;;;104.00;;
6027;SDS011;3042;43.194;27.646;2022-09-29T06:11:39;209.57;;;116.30;;
6027;SDS011;3042;43.194;27.646;2022-09-29T06:14:06;188.93;;;113.97;;
6027;SDS011;3042;43.194;27.646;2022-09-29T06:16:35;189.10;;;106.67;;
6027;SDS011;3042;43.194;27.646;2022-09-29T06:19:03;133.33;;;48.13;;
6027;SDS011;3042;43.194;27.646;2022-09-29T06:21:31;161.00;;;61.03;;
6027;SDS011;3042;43.194;27.646;2022-09-29T06:24:02;138.90;;;71.77;;
6027;SDS011;3042;43.194;27.646;2022-09-29T06:26:31;120.27;;;60.97;;
6027;SDS011;3042;43.194;27.646;2022-09-29T06:28:59;83.73;;;51.37;;
6027;SDS011;3042;43.194;27.646;2022-09-29T06:31:27;92.97;;;47.67;;
6027;SDS011;3042;43.194;27.646;2022-09-29T06:33:57;109.90;;;61.83;;
6027;SDS011;3042;43.194;27.646;2022-09-29T06:36:26;103.77;;;62.20;;
6027;SDS011;3042;43.194;27.646;2022-09-29T06:39:14;102.27;;;53.83;;
6027;SDS011;3042;43.194;27.646;2022-09-29T06:41:42;64.20;;;39.60;;
6027;SDS011;3042;43.194;27.646;2022-09-29T06:44:16;58.20;;;33.70;;
6027;SDS011;3042;43.194;27.646;2022-09-29T06:46:43;66.67;;;38.33;;
6027;SDS011;3042;43.194;27.646;2022-09-29T06:49:12;53.13;;;32.00;;
6027;SDS011;3042;43.194;27.646;2022-09-29T06:51:41;48.83;;;29.00;;
6027;SDS011;3042;43.194;27.646;2022-09-29T06:54:09;58.90;;;33.97;;
6027;SDS011;3042;43.194;27.646;2022-09-29T06:56:36;62.70;;;34.50;;
6027;SDS011;3042;43.194;27.646;2022-09-29T06:59:04;48.43;;;31.23;;
6027;SDS011;3042;43.194;27.646;2022-09-29T07:01:31;69.17;;;38.77;;
6027;SDS011;3042;43.194;27.646;2022-09-29T07:03:59;86.47;;;40.97;;
6027;SDS011;3042;43.194;27.646;2022-09-29T07:06:28;60.63;;;32.20;;
6027;SDS011;3042;43.194;27.646;2022-09-29T07:08:56;64.40;;;32.83;;
6027;SDS011;3042;43.194;27.646;2022-09-29T07:11:25;67.13;;;37.50;;
6027;SDS011;3042;43.194;27.646;2022-09-29T07:13:53;84.03;;;44.70;;
6027;SDS011;3042;43.194;27.646;2022-09-29T07:16:21;90.93;;;41.90;;
6027;SDS011;3042;43.194;27.646;2022-09-29T07:18:49;70.43;;;36.33;;
6027;SDS011;3042;43.194;27.646;2022-09-29T07:21:16;78.00;;;35.20;;
6027;SDS011;3042;43.194;27.646;2022-09-29T07:23:47;62.07;;;31.70;;
6027;SDS011;3042;43.194;27.646;2022-09-29T07:26:14;50.93;;;27.33;;
6027;SDS011;3042;43.194;27.646;2022-09-29T07:28:42;73.77;;;33.43;;
6027;SDS011;3042;43.194;27.646;2022-09-29T07:31:11;58.63;;;32.20;;
6027;SDS011;3042;43.194;27.646;2022-09-29T07:33:40;40.80;;;26.23;;
6027;SDS011;3042;43.194;27.646;2022-09-29T07:36:07;44.63;;;24.50;;
6027;SDS011;3042;43.194;27.646;2022-09-29T07:38:34;25.13;;;17.57;;
6027;SDS011;3042;43.194;27.646;2022-09-29T07:41:05;20.33;;;11.90;;
6027;SDS011;3042;43.194;27.646;2022-09-29T07:43:33;25.23;;;14.07;;
6027;SDS011;3042;43.194;27.646;2022-09-29T07:46:00;28.60;;;11.97;;
6027;SDS011;3042;43.194;27.646;2022-09-29T07:48:28;25.97;;;12.23;;
6027;SDS011;3042;43.194;27.646;2022-09-29T07:50:59;17.30;;;8.90;;
6027;SDS011;3042;43.194;27.646;2022-09-29T07:53:28;12.30;;;6.77;;
6027;SDS011;3042;43.194;27.646;2022-09-29T07:55:56;15.03;;;6.60;;
6027;SDS011;3042;43.194;27.646;2022-09-29T07:58:30;5.40;;;4.67;;
6027;SDS011;3042;43.194;27.646;2022-09-29T08:00:58;5.10;;;4.70;;
6027;SDS011;3042;43.194;27.646;2022-09-29T08:03:25;12.57;;;4.57;;
6027;SDS011;3042;43.194;27.646;2022-09-29T08:05:54;3.37;;;3.03;;
6027;SDS011;3042;43.194;27.646;2022-09-29T08:08:23;4.80;;;3.03;;
6027;SDS011;3042;43.194;27.646;2022-09-29T08:10:51;5.70;;;2.27;;
6027;SDS011;3042;43.194;27.646;2022-09-29T08:13:18;6.20;;;3.57;;
6027;SDS011;3042;43.194;27.646;2022-09-29T08:15:47;2.73;;;2.53;;
6027;SDS011;3042;43.194;27.646;2022-09-29T08:18:14;2.80;;;2.60;;
6027;SDS011;3042;43.194;27.646;2022-09-29T08:20:41;12.80;;;3.47;;
6027;SDS011;3042;43.194;27.646;2022-09-29T08:23:08;7.50;;;2.67;;
6027;SDS011;3042;43.194;27.646;2022-09-29T08:25:35;3.87;;;3.40;;
6027;SDS011;3042;43.194;27.646;2022-09-29T08:28:03;6.63;;;3.73;;
6027;SDS011;3042;43.194;27.646;2022-09-29T08:30:30;6.47;;;2.83;;
6027;SDS011;3042;43.194;27.646;2022-09-29T08:32:58;4.30;;;3.00;;
6027;SDS011;3042;43.194;27.646;2022-09-29T08:35:26;5.20;;;3.10;;
6027;SDS011;3042;43.194;27.646;2022-09-29T08:37:53;6.00;;;2.40;;
6027;SDS011;3042;43.194;27.646;2022-09-29T08:40:23;6.10;;;3.80;;
6027;SDS011;3042;43.194;27.646;2022-09-29T08:42:56;8.73;;;3.90;;
6027;SDS011;3042;43.194;27.646;2022-09-29T08:45:35;21.97;;;5.83;;
6027;SDS011;3042;43.194;27.646;2022-09-29T08:48:09;13.10;;;3.77;;
6027;SDS011;3042;43.194;27.646;2022-09-29T08:50:40;19.13;;;4.33;;
6027;SDS011;3042;43.194;27.646;2022-09-29T08:53:14;20.43;;;3.90;;
6027;SDS011;3042;43.194;27.646;2022-09-29T08:55:47;3.90;;;2.77;;
6027;SDS011;3042;43.194;27.646;2022-09-29T08:58:18;4.57;;;2.13;;
6027;SDS011;3042;43.194;27.646;2022-09-29T09:00:49;4.40;;;2.97;;
6027;SDS011;3042;43.194;27.646;2022-09-29T09:06:28;5.50;;;2.43;;
6027;SDS011;3042;43.194;27.646;2022-09-29T09:09:07;15.33;;;2.50;;
6027;SDS011;3042;43.194;27.646;2022-09-29T09:11:46;38.27;;;35.50;;
6027;SDS011;3042;43.194;27.646;2022-09-29T09:17:26;466.33;;;434.88;;
6027;SDS011;3042;43.194;27.646;2022-09-29T09:20:17;559.00;;;439.87;;
6027;SDS011;3042;43.194;27.646;2022-09-29T09:22:57;505.17;;;414.90;;
6027;SDS011;3042;43.194;27.646;2022-09-29T09:25:29;284.53;;;264.27;;
6027;SDS011;3042;43.194;27.646;2022-09-29T09:28:01;242.37;;;227.63;;
6027;SDS011;3042;43.194;27.646;2022-09-29T09:30:38;172.03;;;160.77;;
6027;SDS011;3042;43.194;27.646;2022-09-29T09:33:11;146.30;;;137.30;;
6027;SDS011;3042;43.194;27.646;2022-09-29T09:35:47;185.40;;;173.40;;
6027;SDS011;3042;43.194;27.646;2022-09-29T09:38:19;268.23;;;253.27;;
6027;SDS011;3042;43.194;27.646;2022-09-29T09:40:53;311.17;;;289.97;;
6027;SDS011;3042;43.194;27.646;2022-09-29T09:43:23;360.43;;;332.50;;
6027;SDS011;3042;43.194;27.646;2022-09-29T09:45:57;441.60;;;403.97;;
6027;SDS011;3042;43.194;27.646;2022-09-29T09:48:29;396.67;;;364.17;;
6027;SDS011;3042;43.194;27.646;2022-09-29T09:51:08;549.45;;;496.23;;
6027;SDS011;3042;43.194;27.646;2022-09-29T09:53:48;535.90;;;476.57;;
6027;SDS011;3042;43.194;27.646;2022-09-29T09:56:21;412.73;;;374.03;;
6027;SDS011;3042;43.194;27.646;2022-09-29T09:59:05;224.80;;;209.17;;
6027;SDS011;3042;43.194;27.646;2022-09-29T10:01:41;215.93;;;200.93;;
6027;SDS011;3042;43.194;27.646;2022-09-29T10:04:08;253.13;;;237.07;;
6027;SDS011;3042;43.194;27.646;2022-09-29T10:06:40;236.57;;;218.40;;
6027;SDS011;3042;43.194;27.646;2022-09-29T10:09:10;293.87;;;273.03;;
6027;SDS011;3042;43.194;27.646;2022-09-29T10:11:39;196.07;;;180.90;;
6027;SDS011;3042;43.194;27.646;2022-09-29T10:14:10;201.13;;;188.67;;
6027;SDS011;3042;43.194;27.646;2022-09-29T10:16:41;116.37;;;109.00;;
6027;SDS011;3042;43.194;27.646;2022-09-29T10:19:12;260.80;;;243.33;;
6027;SDS011;3042;43.194;27.646;2022-09-29T10:21:41;273.03;;;254.70;;
6027;SDS011;3042;43.194;27.646;2022-09-29T10:24:20;256.67;;;240.43;;
6027;SDS011;3042;43.194;27.646;2022-09-29T10:26:49;350.10;;;325.70;;
6027;SDS011;3042;43.194;27.646;2022-09-29T10:29:23;458.40;;;423.73;;
6027;SDS011;3042;43.194;27.646;2022-09-29T10:31:56;495.00;;;449.70;;
6027;SDS011;3042;43.194;27.646;2022-09-29T10:34:27;559.60;;;503.13;;
6027;SDS011;3042;43.194;27.646;2022-09-29T10:36:58;590.17;;;530.23;;
6027;SDS011;3042;43.194;27.646;2022-09-29T10:39:31;551.23;;;498.07;;
6027;SDS011;3042;43.194;27.646;2022-09-29T10:42:04;607.07;;;487.70;;
6027;SDS011;3042;43.194;27.646;2022-09-29T10:44:43;620.63;;;537.77;;
6027;SDS011;3042;43.194;27.646;2022-09-29T10:47:16;610.97;;;527.83;;
6027;SDS011;3042;43.194;27.646;2022-09-29T10:49:46;637.13;;;567.13;;
6027;SDS011;3042;43.194;27.646;2022-09-29T10:52:22;583.10;;;518.07;;
6027;SDS011;3042;43.194;27.646;2022-09-29T10:54:52;627.63;;;561.50;;
6027;SDS011;3042;43.194;27.646;2022-09-29T10:57:24;634.10;;;559.20;;
6027;SDS011;3042;43.194;27.646;2022-09-29T10:59:54;624.30;;;511.30;;
6027;SDS011;3042;43.194;27.646;2022-09-29T11:02:28;559.50;;;482.30;;
6027;SDS011;3042;43.194;27.646;2022-09-29T11:05:00;617.50;;;555.17;;
6027;SDS011;3042;43.194;27.646;2022-09-29T11:07:32;640.27;;;542.10;;
6027;SDS011;3042;43.194;27.646;2022-09-29T11:09:59;638.37;;;559.87;;
6027;SDS011;3042;43.194;27.646;2022-09-29T11:12:28;640.70;;;538.80;;
6027;SDS011;3042;43.194;27.646;2022-09-29T11:14:57;633.47;;;511.20;;
6027;SDS011;3042;43.194;27.646;2022-09-29T11:17:26;648.20;;;563.17;;
6027;SDS011;3042;43.194;27.646;2022-09-29T11:19:55;641.77;;;569.70;;
6027;SDS011;3042;43.194;27.646;2022-09-29T11:28:30;644.67;;;546.37;;
6027;SDS011;3042;43.194;27.646;2022-09-29T11:34:21;628.07;;;490.53;;
6027;SDS011;3042;43.194;27.646;2022-09-29T11:37:16;633.90;;;511.40;;
6027;SDS011;3042;43.194;27.646;2022-09-29T11:40:01;636.07;;;541.97;;
6027;SDS011;3042;43.194;27.646;2022-09-29T11:42:41;618.77;;;526.47;;
6027;SDS011;3042;43.194;27.646;2022-09-29T11:45:29;612.33;;;517.80;;
6027;SDS011;3042;43.194;27.646;2022-09-29T11:48:19;539.03;;;484.83;;
6027;SDS011;3042;43.194;27.646;2022-09-29T11:51:10;518.10;;;466.43;;
6027;SDS011;3042;43.194;27.646;2022-09-29T11:53:49;365.77;;;338.00;;
6027;SDS011;3042;43.194;27.646;2022-09-29T11:56:34;516.77;;;468.93;;
6027;SDS011;3042;43.194;27.646;2022-09-29T11:59:10;637.73;;;520.20;;
6027;SDS011;3042;43.194;27.646;2022-09-29T12:01:50;550.07;;;462.97;;
6027;SDS011;3042;43.194;27.646;2022-09-29T12:04:29;550.20;;;499.37;;
6027;SDS011;3042;43.194;27.646;2022-09-29T12:07:06;515.23;;;462.20;;
6027;SDS011;3042;43.194;27.646;2022-09-29T12:12:50;251.53;;;234.73;;
6027;SDS011;3042;43.194;27.646;2022-09-29T12:15:26;5.83;;;3.50;;
6027;SDS011;3042;43.194;27.646;2022-09-29T12:18:02;174.20;;;159.70;;
6027;SDS011;3042;43.194;27.646;2022-09-29T12:20:37;185.50;;;173.97;;
6027;SDS011;3042;43.194;27.646;2022-09-29T12:23:09;175.67;;;163.57;;
6027;SDS011;3042;43.194;27.646;2022-09-29T12:25:39;192.20;;;179.10;;
6027;SDS011;3042;43.194;27.646;2022-09-29T12:28:19;241.73;;;225.93;;
6027;SDS011;3042;43.194;27.646;2022-09-29T12:30:53;227.90;;;212.40;;
6027;SDS011;3042;43.194;27.646;2022-09-29T12:33:23;185.00;;;173.60;;
6027;SDS011;3042;43.194;27.646;2022-09-29T12:36:00;183.90;;;171.90;;
6027;SDS011;3042;43.194;27.646;2022-09-29T12:38:58;210.77;;;197.47;;
6027;SDS011;3042;43.194;27.646;2022-09-29T12:41:29;237.20;;;220.20;;
6027;SDS011;3042;43.194;27.646;2022-09-29T12:44:06;249.60;;;232.63;;
6027;SDS011;3042;43.194;27.646;2022-09-29T12:46:42;157.73;;;148.00;;
6027;SDS011;3042;43.194;27.646;2022-09-29T12:49:16;152.50;;;143.57;;
6027;SDS011;3042;43.194;27.646;2022-09-29T12:51:47;253.30;;;234.87;;
6027;SDS011;3042;43.194;27.646;2022-09-29T12:54:17;210.97;;;197.47;;
6027;SDS011;3042;43.194;27.646;2022-09-29T12:56:49;180.07;;;168.37;;
6027;SDS011;3042;43.194;27.646;2022-09-29T12:59:26;266.93;;;247.13;;
6027;SDS011;3042;43.194;27.646;2022-09-29T13:01:59;192.67;;;181.40;;
6027;SDS011;3042;43.194;27.646;2022-09-29T13:04:51;303.27;;;280.70;;
6027;SDS011;3042;43.194;27.646;2022-09-29T13:10:35;267.50;;;246.60;;
6027;SDS011;3042;43.194;27.646;2022-09-29T13:16:40;283.97;;;263.40;;
6027;SDS011;3042;43.194;27.646;2022-09-29T13:22:38;406.73;;;373.97;;
6027;SDS011;3042;43.194;27.646;2022-09-29T13:25:23;311.80;;;288.50;;
6027;SDS011;3042;43.194;27.646;2022-09-29T13:27:58;481.17;;;432.70;;
6027;SDS011;3042;43.194;27.646;2022-09-29T13:30:26;441.97;;;399.30;;
6027;SDS011;3042;43.194;27.646;2022-09-29T13:32:59;471.47;;;427.57;;
6027;SDS011;3042;43.194;27.646;2022-09-29T13:35:36;437.30;;;397.43;;
6027;SDS011;3042;43.194;27.646;2022-09-29T13:38:07;464.43;;;419.93;;
6027;SDS011;3042;43.194;27.646;2022-09-29T13:41:07;342.20;;;317.10;;
6027;SDS011;3042;43.194;27.646;2022-09-29T13:46:36;463.73;;;421.53;;
6027;SDS011;3042;43.194;27.646;2022-09-29T13:49:21;382.07;;;346.93;;
6027;SDS011;3042;43.194;27.646;2022-09-29T13:51:54;328.73;;;304.17;;
6027;SDS011;3042;43.194;27.646;2022-09-29T13:54:32;244.47;;;225.90;;
6027;SDS011;3042;43.194;27.646;2022-09-29T13:57:06;249.53;;;231.50;;
6027;SDS011;3042;43.194;27.646;2022-09-29T14:00:03;195.03;;;180.03;;
6027;SDS011;3042;43.194;27.646;2022-09-29T14:02:46;187.47;;;173.63;;
6027;SDS011;3042;43.194;27.646;2022-09-29T14:05:44;202.07;;;187.43;;
6027;SDS011;3042;43.194;27.646;2022-09-29T14:08:18;131.23;;;122.00;;
6027;SDS011;3042;43.194;27.646;2022-09-29T14:10:57;153.47;;;142.03;;
6027;SDS011;3042;43.194;27.646;2022-09-29T14:13:30;128.40;;;117.60;;
6027;SDS011;3042;43.194;27.646;2022-09-29T14:16:15;117.17;;;108.47;;
6027;SDS011;3042;43.194;27.646;2022-09-29T14:18:58;86.27;;;80.37;;
6027;SDS011;3042;43.194;27.646;2022-09-29T14:21:47;166.20;;;153.13;;
6027;SDS011;3042;43.194;27.646;2022-09-29T14:27:18;143.03;;;133.30;;
6027;SDS011;3042;43.194;27.646;2022-09-29T14:29:53;66.90;;;61.40;;
6027;SDS011;3042;43.194;27.646;2022-09-29T14:32:29;209.80;;;194.97;;
6027;SDS011;3042;43.194;27.646;2022-09-29T14:35:09;300.87;;;277.90;;
6027;SDS011;3042;43.194;27.646;2022-09-29T14:37:43;285.77;;;261.37;;
6027;SDS011;3042;43.194;27.646;2022-09-29T14:40:14;207.10;;;190.80;;
6027;SDS011;3042;43.194;27.646;2022-09-29T14:43:02;173.27;;;159.23;;
6027;SDS011;3042;43.194;27.646;2022-09-29T14:45:39;135.10;;;125.17;;
6027;SDS011;3042;43.194;27.646;2022-09-29T14:48:28;152.33;;;142.03;;
6027;SDS011;3042;43.194;27.646;2022-09-29T14:51:22;184.50;;;170.70;;
6027;SDS011;3042;43.194;27.646;2022-09-29T14:54:15;208.97;;;193.67;;
6027;SDS011;3042;43.194;27.646;2022-09-29T14:56:54;258.30;;;237.37;;
6027;SDS011;3042;43.194;27.646;2022-09-29T14:59:36;184.77;;;168.10;;
6027;SDS011;3042;43.194;27.646;2022-09-29T15:02:19;187.93;;;172.30;;
6027;SDS011;3042;43.194;27.646;2022-09-29T15:04:49;165.70;;;152.50;;
6027;SDS011;3042;43.194;27.646;2022-09-29T15:07:19;157.67;;;144.27;;
6027;SDS011;3042;43.194;27.646;2022-09-29T15:09:49;267.77;;;246.47;;
6027;SDS011;3042;43.194;27.646;2022-09-29T15:12:21;280.57;;;257.20;;
6027;SDS011;3042;43.194;27.646;2022-09-29T15:14:50;143.60;;;132.65;;
6027;SDS011;3042;43.194;27.646;2022-09-29T15:17:21;178.27;;;164.03;;
6027;SDS011;3042;43.194;27.646;2022-09-29T15:20:00;153.50;;;141.07;;
6027;SDS011;3042;43.194;27.646;2022-09-29T15:25:47;531.55;;;60.65;;
6027;SDS011;3042;43.194;27.646;2022-09-29T15:28:16;30.90;;;19.67;;
6027;SDS011;3042;43.194;27.646;2022-09-29T15:30:48;41.07;;;36.00;;
6027;SDS011;3042;43.194;27.646;2022-09-29T15:33:19;31.40;;;28.10;;
6027;SDS011;3042;43.194;27.646;2022-09-29T15:35:51;33.67;;;30.20;;
6027;SDS011;3042;43.194;27.646;2022-09-29T15:38:28;46.27;;;24.33;;
6027;SDS011;3042;43.194;27.646;2022-09-29T15:41:01;32.10;;;28.80;;
6027;SDS011;3042;43.194;27.646;2022-09-29T15:43:37;37.50;;;26.00;;